Terminal Aerodrome Forecast
Issued by NWS Jackson, MS

Home | Current Version | Previous Version | Text Only | Print | Product List | Glossary On
Versions: 1 2 3 4 5 6 7 8 9 10 11 12 13 14 15 16 17 18
000
FTUS44 KJAN 230532
TAFHBG
TAF
KHBG 230532Z 2306/2406 17010KT P6SM VCSH BKN015 BKN050
     FM230730 17011KT 5SM -SHRA VCTS BKN025 OVC050CB
     FM231100 18011KT P6SM VCSH BKN015 BKN090
     FM231800 20014G22KT 6SM -SHRA VCTS BKN025CB OVC050
     FM240200 18006KT P6SM VCSH SCT025 BKN050 OVC090=

USA.gov is the U.S. government's official web portal to all federal, state and local government web resources and services.